Amberg, Wisconsin
Current Conditions -  °F | °C
As of 7:54 PM on Friday 28 Nov 2014 (Local Time) from KIMT Reporting Station
Overcast Overcast  
Wind Chill: 15°   Ceiling: 1900
Heat Index: 15°   Visibility: 10mi
Dew Point: 11°   Wind: 0mph
Humidity: 84%   Direction: NA
Pressure: 29.89"   Gusts: NA
Location:  45.5°N, 87.99°W
Report Text: KIMT 290154Z AUTO 00000KT 10SM FEW008 BKN019 OVC041 M09/M12 A2989 RMK AO2 SLP150 T10941117
Loading
Personal Weather Stations






























Interactive Weather Map New forecast layout! Learn more

10-Day Weather Forecast

Advertisements
Track Severe Weather on mobile